Tiempo atmosférico en la estación meteorológica de Carrión De Los Céspedes, Sevilla (76 m.)



Fecha
DESCASC
Temp. máxima en grados centígrados (hora)
DESCASC
Temp. mínima en grados centígrados (hora)
DESCASC
Temp. media en grados centígrados
DESCASC
Racha de viento máxima en m/sg (hora)
DESCASC
Velocidad máxima media en intervalos de 10 minutos(hora)
DESCASC
Precipitaciones diarias en mm
DESCASC
Precipitaciones de 00:00 a 06:00 en mm
DESCASC
Precipitaciones de 06:00 a 12:00 en mm
DESCASC
Precipitaciones de 12:00 a 18:00 en mm
DESCASC
Precipitaciones de 18:00 a 24:00 en mm
DESCASC
16-01-2020 19.2 (15:50) 6.5 (05:10) 12.9 5.83 (16:50) 3.33 (17:20) 0 0 0 0 0
15-01-2020 18.4 (16:00) 3.8 (05:00) 11.1 8.61 (16:10) 5 (15:40) 0 0 0 0 0
14-01-2020 15.2 (16:50) 2.6 (04:00) 8.9 3.61 (12:40) 2.22 (12:40) 0 0 0 0 0
13-01-2020 16.1 (16:30) 1.9 (04:40) 9 4.72 (12:10) 3.06 (12:20) 0 0 0 0 0
12-01-2020 17 (16:50) 1.2 (08:50) 9.1 5.56 (12:20) 3.33 (12:10) 0 0 0 0 0
11-01-2020 15.8 (16:10) 2.6 (00:00) 9.2 7.5 (12:20) 5 (12:20) 0 0 0 0 0
10-01-2020 16 (16:10) 3.9 (00:00) 10 5.83 (13:20) 3.06 (13:10) 0 0 0 0 0
09-01-2020 16.2 (16:00) 1.8 (00:00) 9 3.89 (16:30) 2.22 (12:20) 0 0 0 0 0
08-01-2020 19.5 (16:30) 3.2 (00:00) 11.4 4.72 (12:50) 2.78 (13:00) 0.2 0 0.2 0 0
07-01-2020 17.9 (16:50) 3.7 (00:00) 10.8 5.83 (12:50) 4.17 (12:50) 0 0 0 0 0
06-01-2020 16.6 (15:40) 4.6 (00:00) 10.6 4.17 (11:50) 2.5 (11:50) 0 0 0 0 0
05-01-2020 16 (16:20) 5.4 (00:00) 10.7 7.22 (14:40) 5 (14:40) 0 0 0 0 0
04-01-2020 13.7 (15:40) 3.9 (00:00) 8.8 7.5 (14:10) 5 (15:10) 0 0 0 0 0
03-01-2020 15.2 (16:00) 6.3 (00:00) 10.8 2.78 (16:10) 1.67 (03:00) 0 0 0 0 0
02-01-2020 15.8 (15:50) 4.5 (00:00) 10.2 4.17 (12:30) 2.78 (12:30) 0 0 0 0 0
01-01-2020 17.3 (16:00) 4.7 (00:00) 11 4.44 (11:20) 2.78 (12:40) 0 0 0 0 0
31-12-2019 16.1 (14:50) 5.2 (00:00) 10.7 7.22 (11:30) 4.72 (11:50) 0 0 0 0 0
30-12-2019 -- (--) -- (--) -- -- (--) -- (--) -- 0 0 0 --
29-12-2019 17.7 (16:00) 8.5 (00:00) 13.1 7.78 (10:40) 5 (11:30) 0 0 0 0 0
28-12-2019 20.1 (16:20) 9.5 (00:00) 14.8 7.78 (11:40) 4.72 (12:00) 0 0 0 0 0
27-12-2019 20.7 (15:50) 11.4 (00:00) 16.1 7.5 (08:30) 4.44 (08:20) 0 0 0 0 0
26-12-2019 22.2 (16:00) 9 (00:00) 15.6 6.94 (19:50) 3.89 (19:50) 0 0 0 0 0
25-12-2019 21.3 (16:30) 10.2 (00:00) 15.7 5.56 (13:40) 3.33 (13:50) 0 0 0 0 0
24-12-2019 20.2 (15:30) 10.6 (08:30) 15.4 8.89 (10:50) 5.28 (10:50) 0 0 0 0 0
23-12-2019 18.4 (16:00) 9.3 (00:00) 13.8 7.78 (13:20) 5 (13:40) 0.2 0 0.2 0 0
22-12-2019 18.5 (15:10) 8.3 (08:30) 13.4 5.83 (14:10) 3.89 (14:10) 0.2 0 0.2 0 0
21-12-2019 18.3 (16:50) 13.8 (23:59) 16 18.06 (15:30) 11.11 (15:30) 1.4 0 1 0.4 0
20-12-2019 18 (15:50) 16.9 (00:00) 17.4 19.72 (03:00) 11.67 (03:30) 35.8 23.6 9 2.6 0.6

Gráficas

Temp. máximas Temp. mínimas Temp. medias Precipitaciones Rachas de viento máximas Velocidades máximas media en intervalos de 10 minutos

Datos horarios

Fecha y hora oficial Temperatura (ºC) Velocidad del viento (km/h) Dirección del viento Racha (km/h) Dirección de racha Precipitación (mm) Presión (hPa) Tendencia (hPa) Humedad (%)
2020-01-18 23:00:00 13.4 23 Oeste 33 Oeste 0 -- -- 95
2020-01-18 22:00:00 14.1 21 Oeste 28 Oeste 0 -- -- 96
2020-01-18 21:00:00 15.1 9 Oeste 21 Oeste 0 -- -- 97
2020-01-18 20:00:00 15.6 17 Oeste 30 Oeste 0.4 -- -- 98
2020-01-18 19:00:00 15.8 10 Sudoeste 23 Sudoeste 1.2 -- -- 98
2020-01-18 18:00:00 16.1 12 Sudoeste 25 Sudoeste 0 -- -- 97
2020-01-18 17:00:00 16 13 Oeste 29 Oeste 0 -- -- 99
2020-01-18 16:00:00 15.6 18 Oeste 30 Oeste 0.2 -- -- 99
2020-01-18 15:00:00 14.8 12 Sudoeste 27 Sudoeste 0.8 -- -- 100
2020-01-18 14:00:00 12.9 3 Sudeste 7 Sur 1.4 -- -- 100
2020-01-18 13:00:00 11.7 6 Sur 16 Sudeste 2.8 -- -- 99
2020-01-18 12:00:00 10.9 8 Sur 18 Sur 1 -- -- 99
2020-01-18 11:00:00 10.3 6 Sudeste 10 Sudeste 1 -- -- 99
2020-01-18 10:00:00 9.9 4 Nordeste 9 Norte 0.4 -- -- 98
2020-01-18 09:00:00 9.5 0 Calma 4 Sur 0 -- -- 98
2020-01-18 08:00:00 9.2 2 Sudeste 4 Noroeste 0 -- -- 98
2020-01-18 07:00:00 8.9 2 Noroeste 4 Noroeste 0 -- -- 98
2020-01-18 06:00:00 8.7 3 Oeste 5 Sudeste 0 -- -- 98
2020-01-18 05:00:00 8.7 0 Calma 6 Noroeste 0 -- -- 98
2020-01-18 04:00:00 8 5 Noroeste 6 Noroeste 0 -- -- 98
2020-01-18 03:00:00 7.8 0 Calma 4 Norte 0 -- -- 97
2020-01-18 02:00:00 7.7 2 Noroeste 6 Norte 0 -- -- 97
2020-01-18 01:00:00 8 3 Noroeste 5 Norte 0 -- -- 96
2020-01-18 00:00:00 8.6 3 Noroeste 9 Oeste 0 -- -- 96
2020-01-17 23:00:00 9.6 0 Calma 5 Noroeste 0 -- -- 95
2020-01-17 22:00:00 10.3 4 Noroeste 6 Noroeste 0 -- -- 95
2020-01-17 21:00:00 11.1 3 Norte 7 Oeste 0 -- -- 94
2020-01-17 20:00:00 12 5 Noroeste 7 Noroeste 0 -- -- 89
2020-01-17 19:00:00 14.4 4 Nordeste 9 Nordeste 0 -- -- 84
2020-01-17 18:00:00 17.1 3 Este 8 Este 0 -- -- 71
2020-01-17 17:00:00 17.7 4 Sur 8 Sudeste 0 -- -- 69
2020-01-17 16:00:00 16.9 3 Sudeste 10 Este 0 -- -- 75
2020-01-17 15:00:00 15.7 6 Este 13 Nordeste 0 -- -- 81
2020-01-17 14:00:00 14.6 9 Este 15 Este 0 -- -- 86
2020-01-17 13:00:00 13.1 10 Este 14 Este 0 -- -- 93
2020-01-17 12:00:00 12 9 Nordeste 14 Nordeste 0 -- -- 98
2020-01-17 11:00:00 11.7 3 Nordeste 11 Nordeste 0 -- -- 98
2020-01-17 10:00:00 11.2 3 Nordeste 5 Nordeste 0 -- -- 98
2020-01-17 09:00:00 10.7 2 Nordeste 9 Nordeste 0.2 -- -- 98
2020-01-17 08:00:00 11 5 Nordeste 9 Nordeste 0 -- -- 98
2020-01-17 07:00:00 10.9 0 Calma 7 Noroeste 0 -- -- 98
2020-01-17 06:00:00 10.5 4 Sudeste 6 Este 0.2 -- -- 98
2020-01-17 05:00:00 10.6 0 Calma 5 Noroeste 0.2 -- -- 97
2020-01-17 04:00:00 10.4 2 Sudeste 4 Sudeste 0 -- -- 97
2020-01-17 03:00:00 10.4 3 Sudeste 4 Sudeste 0 -- -- 97
2020-01-17 02:00:00 10.6 3 Sudeste 9 Sudeste 0 -- -- 97
2020-01-17 01:00:00 11.4 4 Este 5 Este 0 -- -- 97
2020-01-17 00:00:00 11.8 3 Sudoeste 11 Sur 0 -- -- 97
2020-01-16 23:00:00 11.2 4 Sur 9 Sur 0 -- -- 96
2020-01-16 22:00:00 11.3 4 Sur 11 Sudoeste 0 -- -- 93
2020-01-16 21:00:00 12 6 Sudoeste 10 Sudoeste 0 -- -- 92
2020-01-16 20:00:00 12.6 6 Sudoeste 12 Sudoeste 0 -- -- 87
2020-01-16 19:00:00 14.3 7 Sudoeste 14 Sudoeste 0 -- -- 74
2020-01-16 18:00:00 17 9 Sudoeste 20 Sudoeste 0 -- -- 49
2020-01-16 17:00:00 18.9 10 Sudoeste 21 Sudoeste 0 -- -- 42
2020-01-16 16:00:00 19.1 9 Sudoeste 15 Sudoeste 0 -- -- 46
2020-01-16 15:00:00 18 4 Sudeste 13 Este 0 -- -- 49
2020-01-16 14:00:00 16.2 3 Nordeste 9 Este 0 -- -- 59
2020-01-16 13:00:00 14.8 6 Este 15 Nordeste 0 -- -- 63
2020-01-16 12:00:00 12.8 8 Nordeste 20 Nordeste 0 -- -- 71
2020-01-16 11:00:00 10.5 9 Nordeste 19 Nordeste 0 -- -- 79
2020-01-16 10:00:00 8.9 8 Nordeste 15 Norte 0 -- -- 86
2020-01-16 09:00:00 7.1 3 Oeste 5 Nordeste 0 -- -- 94
2020-01-16 08:00:00 7.5 0 Calma 4 Este 0 -- -- 96
2020-01-16 07:00:00 8.2 0 Calma 8 Noroeste 0 -- -- 98
2020-01-16 06:00:00 7.5 3 Noroeste 7 Norte 0 -- -- 98
2020-01-16 05:00:00 6.7 3 Noroeste 5 Noroeste 0 -- -- 96
2020-01-16 04:00:00 7.1 0 Calma 5 Noroeste 0 -- -- 96
2020-01-16 03:00:00 7.6 3 Noroeste 4 Oeste 0 -- -- 95
2020-01-16 02:00:00 8 0 Calma 6 Noroeste 0 -- -- 93
2020-01-16 01:00:00 9.3 2 Nordeste 8 Este 0 -- -- 90
2020-01-16 00:00:00 11 0 Calma 6 Sur 0 -- -- 90
2020-01-15 23:00:00 11.8 2 Sur 9 Sudeste 0 -- -- 87
2020-01-15 22:00:00 12.1 5 Sudeste 10 Sur 0 -- -- 90
2020-01-15 21:00:00 12 6 Sudeste 8 Sudeste 0 -- -- 92
2020-01-15 20:00:00 13.1 3 Sudeste 12 Sur 0 -- -- 91
2020-01-15 19:00:00 14.7 5 Sur 16 Sur 0 -- -- 86
2020-01-15 18:00:00 16.4 10 Sudoeste 26 Sudoeste 0 -- -- 79
2020-01-15 17:00:00 17.9 14 Sudoeste 31 Sudoeste 0 -- -- 73
2020-01-15 16:00:00 18.4 17 Sudoeste 29 Sur 0 -- -- 71
2020-01-15 15:00:00 17 10 Sudeste 19 Este 0 -- -- 74
2020-01-15 14:00:00 15.5 10 Este 16 Este 0 -- -- 72
2020-01-15 13:00:00 13.6 5 Nordeste 9 Este 0 -- -- 76
2020-01-15 12:00:00 11.5 2 Nordeste 9 Este 0 -- -- 80
2020-01-15 11:00:00 8.2 2 Norte 11 Norte 0 -- -- 89
2020-01-15 10:00:00 6.1 2 Noroeste 8 Norte 0 -- -- 96
2020-01-15 09:00:00 4.7 2 Noroeste 6 Sudeste 0 -- -- 96
2020-01-15 08:00:00 5.1 0 Calma 6 Nordeste 0 -- -- 97
2020-01-15 07:00:00 5.3 3 Norte 8 Noroeste 0 -- -- 98
2020-01-15 06:00:00 4.3 0 Calma 8 Noroeste 0 -- -- 97
2020-01-15 05:00:00 3.8 3 Noroeste 7 Norte 0 -- -- 96
2020-01-15 04:00:00 4.1 3 Noroeste 5 Oeste 0 -- -- 96
2020-01-15 03:00:00 4.5 2 Noroeste 6 Noroeste 0 -- -- 96
2020-01-15 02:00:00 4.5 3 Noroeste 7 Oeste 0 -- -- 95
2020-01-15 01:00:00 4.9 2 Noroeste 3 Noroeste 0 -- -- 94
2020-01-15 00:00:00 5.6 3 Noroeste 6 Noroeste 0 -- -- 94
2020-01-14 23:00:00 6.2 4 Noroeste 5 Noroeste 0 -- -- 92
2020-01-14 22:00:00 7 4 Noroeste 5 Noroeste 0 -- -- 91
2020-01-14 21:00:00 8.1 3 Sudeste 5 Sudeste 0 -- -- 89
2020-01-14 20:00:00 9.5 -- -- -- -- 0 -- -- 84
2020-01-14 19:00:00 12.4 3 Sur 6 Sudoeste 0 -- -- 73
2020-01-14 18:00:00 14.3 3 Sudoeste 8 Sur 0 -- -- 66
2020-01-14 17:00:00 15 4 Sudoeste 12 Sudeste 0 -- -- 63
2020-01-14 16:00:00 14.7 5 Sur 10 Sur 0 -- -- 62
2020-01-14 15:00:00 14 4 Sudeste 8 Este 0 -- -- 66
2020-01-14 14:00:00 13.2 2 Noroeste 8 Este 0 -- -- 70
2020-01-14 13:00:00 11.6 5 Este 13 Este 0 -- -- 75
2020-01-14 12:00:00 9.5 4 Nordeste 9 Este 0 -- -- 82
2020-01-14 11:00:00 6.3 3 Norte 7 Norte 0 -- -- 97
2020-01-14 10:00:00 4.2 4 Noroeste 9 Noroeste 0 -- -- 98
2020-01-14 09:00:00 3 4 Noroeste 9 Nordeste 0 -- -- 98
2020-01-14 08:00:00 2.8 0 Calma 8 Noroeste 0 -- -- 98
2020-01-14 07:00:00 2.9 5 Noroeste 8 Oeste 0 -- -- 98
2020-01-14 06:00:00 3.1 3 Noroeste 5 Oeste 0 -- -- 98
2020-01-14 05:00:00 3 4 Noroeste 9 Oeste 0 -- -- 97
2020-01-14 04:00:00 2.6 4 Oeste 8 Noroeste 0 -- -- 97
2020-01-14 03:00:00 2.7 0 Calma 4 Oeste 0 -- -- 96
2020-01-14 02:00:00 3.1 0 Calma 2 Sudeste 0 -- -- 95
2020-01-14 01:00:00 3.6 2 Noroeste 4 Noroeste 0 -- -- 94
2020-01-14 00:00:00 4.4 0 Calma 3 Noroeste 0 -- -- 93
2020-01-13 23:00:00 5.5 3 Norte 9 Noroeste 0 -- -- 93
2020-01-13 22:00:00 6.3 2 Noroeste 8 Noroeste 0 -- -- 91
2020-01-13 21:00:00 7.3 5 Sudeste 12 Sur 0 -- -- 87
2020-01-13 20:00:00 9.6 3 Este 5 Sudeste 0 -- -- 81
2020-01-13 19:00:00 12 3 Sudeste 5 Sudeste 0 -- -- 74
2020-01-13 18:00:00 14.5 3 Sur 11 Sudoeste 0 -- -- 67
2020-01-13 17:00:00 15.1 3 Sudoeste 13 Sudoeste 0 -- -- 63
2020-01-13 16:00:00 15.5 4 Noroeste 9 Noroeste 0 -- -- 60
2020-01-13 15:00:00 14.3 4 Este 8 Este 0 -- -- 61
2020-01-13 14:00:00 13.4 3 Norte 10 Este 0 -- -- 63
2020-01-13 13:00:00 12.4 9 Nordeste 17 Nordeste 0 -- -- 66
2020-01-13 12:00:00 10 10 Nordeste 16 Nordeste 0 -- -- 71
2020-01-13 11:00:00 7.8 5 Norte 10 Norte 0 -- -- 79
2020-01-13 10:00:00 4.6 2 Noroeste 7 Noroeste 0 -- -- 93
2020-01-13 09:00:00 2.3 4 Noroeste 7 Noroeste 0 -- -- 93
2020-01-13 08:00:00 3.1 2 Norte 6 Norte 0 -- -- 94
2020-01-13 07:00:00 2.5 3 Noroeste 8 Noroeste 0 -- -- 95
2020-01-13 06:00:00 2.6 3 Noroeste 9 Norte 0 -- -- 95
2020-01-13 05:00:00 2 0 Calma 7 Oeste 0 -- -- 95
2020-01-13 04:00:00 2.1 3 Oeste 6 Oeste 0 -- -- 94
2020-01-13 03:00:00 2.2 2 Noroeste 4 Oeste 0 -- -- 93
2020-01-13 02:00:00 2.8 0 Calma 6 Noroeste 0 -- -- 92
2020-01-13 01:00:00 3.3 0 Calma 6 Noroeste 0 -- -- 90
2020-01-13 00:00:00 4 4 Noroeste 7 Noroeste 0 -- -- 89
2020-01-12 23:00:00 4.5 3 Noroeste 8 Noroeste 0 -- -- 88
2020-01-12 22:00:00 5.5 4 Noroeste 6 Noroeste 0 -- -- 87
2020-01-12 21:00:00 6.6 4 Noroeste 6 Noroeste 0 -- -- 84
2020-01-12 20:00:00 8.7 0 Calma 3 Sur 0 -- -- 77
2020-01-12 19:00:00 12.1 0 Calma 5 Oeste 0 -- -- 66
2020-01-12 18:00:00 15.8 0 Calma 8 Este 0 -- -- 50
2020-01-12 17:00:00 16.9 3 Este 7 Este 0 -- -- 44
2020-01-12 16:00:00 16.6 3 Nordeste 9 Este 0 -- -- 44
2020-01-12 15:00:00 15.6 6 Este 12 Nordeste 0 -- -- 54
2020-01-12 14:00:00 14.4 6 Este 14 Este 0 -- -- 61
2020-01-12 13:00:00 12.4 8 Nordeste 20 Este 0 -- -- 65
2020-01-12 12:00:00 10.6 11 Este 17 Nordeste 0 -- -- 69
2020-01-12 11:00:00 7.5 7 Nordeste 11 Nordeste 0 -- -- 78
2020-01-12 10:00:00 4.8 0 Calma 6 Noroeste 0 -- -- 93
2020-01-12 09:00:00 1.5 2 Noroeste 7 Noroeste 0 -- -- 95
2020-01-12 08:00:00 1.7 5 Noroeste 8 Noroeste 0 -- -- 94
2020-01-12 07:00:00 1.7 6 Noroeste 9 Noroeste 0 -- -- 95
2020-01-12 06:00:00 1.7 3 Noroeste 9 Noroeste 0 -- -- 93
2020-01-12 05:00:00 1.9 4 Oeste 6 Oeste 0 -- -- 93
2020-01-12 04:00:00 1.6 5 Noroeste 7 Noroeste 0 -- -- 93
2020-01-12 03:00:00 2.5 3 Oeste 6 Norte 0 -- -- 92
2020-01-12 02:00:00 2.9 4 Norte 6 Norte 0 -- -- 92
2020-01-12 01:00:00 3.1 2 Noroeste 5 Noroeste 0 -- -- 91
2020-01-12 00:00:00 3.8 3 Noroeste 7 Norte 0 -- -- 89
2020-01-11 23:00:00 4.4 0 Calma 5 Noroeste 0 -- -- 88
2020-01-11 22:00:00 5.2 3 Noroeste 6 Noroeste 0 -- -- 86
2020-01-11 21:00:00 6.3 3 Noroeste 5 Noroeste 0 -- -- 82
2020-01-11 20:00:00 8.1 2 Noroeste 7 Norte 0 -- -- 76
2020-01-11 19:00:00 11.2 2 Noroeste 5 Oeste 0 -- -- 66
2020-01-11 18:00:00 14.6 4 Nordeste 10 Nordeste 0 -- -- 51
2020-01-11 17:00:00 15.7 5 Este 13 Este 0 -- -- 46
2020-01-11 16:00:00 15.7 8 Este 14 Nordeste 0 -- -- 47
2020-01-11 15:00:00 15 6 Nordeste 21 Nordeste 0 -- -- 50
2020-01-11 14:00:00 14.1 10 Nordeste 20 Nordeste 0 -- -- 50
2020-01-11 13:00:00 13.4 15 Este 27 Nordeste 0 -- -- 53
2020-01-11 12:00:00 12.1 13 Nordeste 22 Nordeste 0 -- -- 56
2020-01-11 11:00:00 9.8 8 Nordeste 20 Nordeste 0 -- -- 65
2020-01-11 10:00:00 8.2 5 Nordeste 15 Nordeste 0 -- -- 69
2020-01-11 09:00:00 3.2 2 Norte 6 Nordeste 0 -- -- 86
2020-01-11 08:00:00 4.1 2 Sudoeste 9 Nordeste 0 -- -- 81
2020-01-11 07:00:00 5.6 5 Norte 13 Norte 0 -- -- 75
2020-01-11 06:00:00 4.6 3 Norte 11 Norte 0 -- -- 80
2020-01-11 05:00:00 2.9 3 Norte 6 Noroeste 0 -- -- 88
2020-01-11 04:00:00 3.6 3 Noroeste 5 Norte 0 -- -- 86
2020-01-11 03:00:00 4.7 2 Norte 9 Nordeste 0 -- -- 82
2020-01-11 02:00:00 6 4 Norte 9 Norte 0 -- -- 78
2020-01-11 01:00:00 6 2 Noroeste 10 Norte 0 -- -- 81
2020-01-11 00:00:00 8.4 5 Norte 15 Nordeste 0 -- -- 74
2020-01-10 23:00:00 9.4 8 Nordeste 19 Nordeste 0 -- -- 72
2020-01-10 22:00:00 10 9 Nordeste 14 Nordeste 0 -- -- 71
2020-01-10 21:00:00 8.7 4 Norte 10 Norte 0 -- -- 79
2020-01-10 20:00:00 8.9 4 Noroeste 9 Noroeste 0 -- -- 80
2020-01-10 19:00:00 11.8 3 Noroeste 5 Este 0 -- -- 71
2020-01-10 18:00:00 14.8 4 Este 12 Nordeste 0 -- -- 56
2020-01-10 17:00:00 15.7 8 Nordeste 19 Este 0 -- -- 50
2020-01-10 16:00:00 15.9 9 Nordeste 18 Este 0 -- -- 47
2020-01-10 15:00:00 15.4 8 Norte 18 Norte 0 -- -- 48
2020-01-10 14:00:00 15 10 Nordeste 21 Nordeste 0 -- -- 51
2020-01-10 13:00:00 13.7 9 Nordeste 19 Nordeste 0 -- -- 54
2020-01-10 12:00:00 12.1 7 Nordeste 14 Nordeste 0 -- -- 70
2020-01-10 11:00:00 10.1 5 Nordeste 8 Nordeste 0 -- -- 81
2020-01-10 10:00:00 7 3 Noroeste 7 Oeste 0 -- -- 98
2020-01-10 09:00:00 5 4 Noroeste 8 Noroeste 0 -- -- 98
2020-01-10 08:00:00 5 4 Noroeste 10 Noroeste 0 -- -- 98
2020-01-10 07:00:00 5.1 5 Noroeste 9 Noroeste 0 -- -- 98
2020-01-10 06:00:00 5.4 4 Noroeste 7 Noroeste 0 -- -- 98
2020-01-10 05:00:00 3.9 0 Calma 6 Norte 0 -- -- 97
2020-01-10 04:00:00 5 4 Norte 9 Norte 0 -- -- 97
2020-01-10 03:00:00 5.1 2 Norte 5 Noroeste 0 -- -- 96
2020-01-10 02:00:00 5.9 2 Noroeste 10 Noroeste 0 -- -- 96
2020-01-10 01:00:00 5.4 4 Noroeste 13 Noroeste 0 -- -- 95
2020-01-10 00:00:00 6.4 0 Calma 5 Oeste 0 -- -- 95
2020-01-09 23:00:00 7 3 Noroeste 8 Norte 0 -- -- 94
2020-01-09 22:00:00 7.3 3 Noroeste 5 Norte 0 -- -- 92
2020-01-09 21:00:00 8.3 2 Norte 3 Norte 0 -- -- 90
2020-01-09 20:00:00 10 0 Calma 4 Sudeste 0 -- -- 85
2020-01-09 19:00:00 12.6 0 Calma 4 Sudoeste 0 -- -- 78
2020-01-09 18:00:00 14.8 3 Sudoeste 8 Sur 0 -- -- 71
2020-01-09 17:00:00 15.7 4 Sudeste 14 Sudeste 0 -- -- 65
2020-01-09 16:00:00 16.2 4 Sudeste 10 Sur 0 -- -- 64
2020-01-09 15:00:00 15.8 5 Norte 14 Norte 0 -- -- 68
2020-01-09 14:00:00 15.3 4 Sudoeste 12 Sur 0 -- -- 68
2020-01-09 13:00:00 13.3 2 Sudoeste 13 Este 0 -- -- 75
2020-01-09 12:00:00 10.3 6 Este 10 Este 0 -- -- 86
2020-01-09 11:00:00 8.3 0 Calma 6 Nordeste 0 -- -- 98
2020-01-09 10:00:00 4.9 3 Noroeste 6 Noroeste 0 -- -- 99
2020-01-09 09:00:00 1.8 2 Noroeste 5 Noroeste 0 -- -- 97
2020-01-09 08:00:00 2.1 0 Calma 4 Noroeste 0 -- -- 97
2020-01-09 07:00:00 2.7 0 Calma 7 Noroeste 0 -- -- 97
2020-01-09 06:00:00 3.4 3 Noroeste 8 Oeste 0 -- -- 97
2020-01-09 05:00:00 3.4 5 Noroeste 8 Noroeste 0 -- -- 97
2020-01-09 04:00:00 3 4 Noroeste 6 Noroeste 0 -- -- 96
2020-01-09 03:00:00 3.3 3 Noroeste 5 Noroeste 0 -- -- 95
2020-01-09 02:00:00 4 0 Calma 3 Noroeste 0 -- -- 93
2020-01-09 01:00:00 4.8 0 Calma 6 Noroeste 0 -- -- 94
2020-01-09 00:00:00 5.1 3 Oeste 6 Noroeste 0 -- -- 92
2020-01-08 23:00:00 5.6 4 Noroeste 6 Noroeste 0 -- -- 91
2020-01-08 22:00:00 6.7 0 Calma 3 Sudeste 0 -- -- 88
2020-01-08 21:00:00 8 0 Calma 3 Noroeste 0 -- -- 85
2020-01-08 20:00:00 9.9 3 Norte 5 Norte 0 -- -- 80
2020-01-08 19:00:00 13.3 2 Sur 4 Sur 0 -- -- 68
2020-01-08 18:00:00 17.7 3 Noroeste 5 Oeste 0 -- -- 50
2020-01-08 17:00:00 19.1 2 Noroeste 5 Noroeste 0 -- -- 42
2020-01-08 16:00:00 19 3 Este 12 Este 0 -- -- 42
2020-01-08 15:00:00 18.1 6 Este 12 Este 0 -- -- 48
2020-01-08 14:00:00 16.5 6 Nordeste 16 Este 0 -- -- 52
2020-01-08 13:00:00 14.5 10 Este 17 Este 0 -- -- 58
2020-01-08 12:00:00 11.7 6 Nordeste 14 Nordeste 0 -- -- 65
2020-01-08 11:00:00 8.7 4 Norte 8 Noroeste 0 -- -- 82
2020-01-08 10:00:00 6.8 4 Noroeste 9 Norte 0 -- -- 90
2020-01-08 09:00:00 5 3 Noroeste 9 Noroeste 0.2 -- -- 97
2020-01-08 08:00:00 3.9 4 Noroeste 8 Noroeste 0 -- -- 95
2020-01-08 07:00:00 4.1 3 Norte 9 Noroeste 0 -- -- 97
2020-01-08 06:00:00 4 7 Noroeste 11 Noroeste 0 -- -- 97
2020-01-08 05:00:00 3.2 0 Calma 6 Oeste 0 -- -- 96
2020-01-08 04:00:00 3.4 2 Noroeste 4 Norte 0 -- -- 95
2020-01-08 03:00:00 4 3 Noroeste 5 Noroeste 0 -- -- 95
2020-01-08 02:00:00 4.9 3 Noroeste 4 Noroeste 0 -- -- 95
2020-01-08 01:00:00 4.5 3 Noroeste 5 Norte 0 -- -- 92
2020-01-08 00:00:00 5.4 3 Noroeste 6 Noroeste 0 -- -- 92
2020-01-07 23:00:00 6.6 3 Noroeste 5 Noroeste 0 -- -- 91
2020-01-07 22:00:00 7.2 0 Calma 5 Norte 0 -- -- 89
2020-01-07 21:00:00 8.4 3 Noroeste 6 Norte 0 -- -- 86
2020-01-07 20:00:00 10.2 2 Noroeste 5 Noroeste 0 -- -- 81
2020-01-07 19:00:00 12.9 2 Norte 5 Norte 0 -- -- 72
2020-01-07 18:00:00 16.3 3 Norte 5 Este 0 -- -- 57
2020-01-07 17:00:00 17.8 4 Sudeste 12 Sudeste 0 -- -- 50
2020-01-07 16:00:00 17.4 7 Nordeste 14 Este 0 -- -- 52
2020-01-07 15:00:00 16.4 5 Nordeste 15 Este 0 -- -- 56
2020-01-07 14:00:00 15.2 8 Este 17 Este 0 -- -- 61
2020-01-07 13:00:00 13.9 12 Nordeste 21 Nordeste 0 -- -- 65
2020-01-07 12:00:00 12.2 9 Este 15 Este 0 -- -- 72
2020-01-07 11:00:00 9.9 0 Calma 6 Noroeste 0 -- -- 82
2020-01-07 10:00:00 6.4 3 Norte 7 Noroeste 0 -- -- 96
2020-01-07 09:00:00 4 5 Noroeste 12 Noroeste 0 -- -- 96
2020-01-07 08:00:00 4.8 5 Noroeste 8 Noroeste 0 -- -- 96
2020-01-07 07:00:00 5.9 5 Nordeste 13 Este 0 -- -- 97
2020-01-07 06:00:00 5.9 2 Norte 6 Nordeste 0 -- -- 98
2020-01-07 05:00:00 3.7 3 Norte 6 Noroeste 0 -- -- 97
2020-01-07 04:00:00 4 3 Oeste 5 Norte 0 -- -- 96
2020-01-07 03:00:00 5 2 Noroeste 5 Oeste 0 -- -- 96
2020-01-07 02:00:00 4.5 5 Oeste 6 Noroeste 0 -- -- 95
2020-01-07 01:00:00 5 4 Noroeste 5 Oeste 0 -- -- 95
2020-01-07 00:00:00 5.5 2 Norte 4 Norte 0 -- -- 93
2020-01-06 23:00:00 6.4 4 Norte 5 Norte 0 -- -- 92
2020-01-06 22:00:00 7.3 3 Noroeste 8 Noroeste 0 -- -- 91
2020-01-06 21:00:00 7.8 3 Noroeste 8 Noroeste 0 -- -- 89
2020-01-06 20:00:00 9.2 4 Noroeste 8 Noroeste 0 -- -- 86
2020-01-06 19:00:00 11.9 0 Calma 6 Este 0 -- -- 79
2020-01-06 18:00:00 14.8 3 Nordeste 8 Este 0 -- -- 68
2020-01-06 17:00:00 16.4 4 Noroeste 7 Norte 0 -- -- 62
2020-01-06 16:00:00 16.5 2 Noroeste 10 Sur 0 -- -- 59
2020-01-06 15:00:00 15.9 4 Sudeste 9 Sudeste 0 -- -- 63
2020-01-06 14:00:00 14.5 3 Este 10 Nordeste 0 -- -- 68
2020-01-06 13:00:00 12.9 6 Nordeste 10 Este 0 -- -- 74
2020-01-06 12:00:00 11.5 8 Este 15 Este 0 -- -- 78
2020-01-06 11:00:00 8.6 4 Oeste 11 Norte 0 -- -- 88
2020-01-06 10:00:00 6.7 0 Calma 13 Nordeste 0 -- -- 93